createdAt,value
2018-02-19T00:01:30.607Z,21.58
2018-02-19T00:03:59.952Z,19.23
2018-02-19T00:06:29.993Z,15.13
2018-02-19T00:08:59.434Z,13.52
2018-02-19T00:11:29.852Z,17.83
2018-02-19T00:13:59.242Z,15.40
2018-02-19T00:16:28.771Z,16.20
2018-02-19T00:18:58.985Z,17.62
2018-02-19T00:21:28.706Z,15.32
2018-02-19T00:23:57.940Z,17.08
2018-02-19T00:26:27.403Z,18.30
2018-02-19T00:28:57.875Z,16.62
2018-02-19T00:31:27.628Z,15.32
2018-02-19T00:33:56.977Z,16.17
2018-02-19T00:36:26.509Z,16.48
2018-02-19T00:38:55.742Z,16.62
2018-02-19T00:41:25.083Z,15.52
2018-02-19T00:43:54.313Z,14.90
2018-02-19T00:46:23.738Z,14.13
2018-02-19T00:48:52.961Z,11.90
2018-02-19T00:51:22.346Z,14.18
2018-02-19T00:53:51.579Z,13.02
2018-02-19T00:56:21.028Z,13.62
2018-02-19T00:58:50.273Z,15.95
2018-02-19T01:01:20.117Z,14.20
2018-02-19T01:03:49.560Z,15.68
2018-02-19T01:06:18.790Z,13.62
2018-02-19T01:08:48.168Z,14.48
2018-02-19T01:11:17.410Z,13.95
2018-02-19T01:13:46.794Z,14.73
2018-02-19T01:16:16.793Z,13.85
2018-02-19T01:18:46.923Z,13.13
2018-02-19T01:21:16.862Z,12.00
2018-02-19T01:23:46.220Z,14.65
2018-02-19T01:26:15.452Z,14.20
2018-02-19T01:28:44.787Z,13.62
2018-02-19T01:31:14.015Z,13.40
2018-02-19T01:33:43.441Z,14.38
2018-02-19T01:36:13.005Z,14.80
2018-02-19T01:38:42.428Z,12.73
2018-02-19T01:41:11.688Z,13.50
2018-02-19T01:43:41.132Z,13.70
2018-02-19T01:46:10.559Z,12.75
2018-02-19T01:48:40.190Z,12.10
2018-02-19T01:51:09.629Z,13.57
2018-02-19T01:53:38.873Z,12.85
2018-02-19T01:56:08.352Z,13.70
2018-02-19T01:58:37.589Z,13.18
2018-02-19T02:01:06.944Z,11.70
2018-02-19T02:03:36.257Z,13.40
2018-02-19T02:06:05.765Z,12.77
2018-02-19T02:08:35.768Z,11.85
2018-02-19T02:11:06.009Z,13.27
2018-02-19T02:13:35.236Z,13.52
2018-02-19T02:16:04.610Z,12.00
2018-02-19T02:18:33.840Z,13.32
2018-02-19T02:21:03.206Z,13.43
2018-02-19T02:23:32.560Z,13.30
2018-02-19T02:26:02.421Z,12.35
2018-02-19T02:28:31.804Z,12.60
2018-02-19T02:31:02.052Z,12.88
2018-02-19T02:33:31.276Z,12.60
2018-02-19T02:36:01.301Z,13.70
2018-02-19T02:38:30.768Z,12.15
2018-02-19T02:41:00.001Z,12.80
2018-02-19T02:43:29.373Z,12.35
2018-02-19T02:45:58.606Z,12.85
2018-02-19T02:48:27.990Z,12.52
2018-02-19T02:50:57.205Z,13.60
2018-02-19T02:53:26.582Z,13.20
2018-02-19T02:55:56.081Z,13.93
2018-02-19T02:58:25.588Z,13.00
2018-02-19T03:00:54.825Z,12.90
2018-02-19T03:03:24.804Z,12.48
2018-02-19T03:05:54.352Z,13.02
2018-02-19T03:08:24.420Z,11.90
2018-02-19T03:10:53.684Z,12.30
2018-02-19T03:13:23.033Z,13.73
2018-02-19T03:15:52.361Z,13.65
2018-02-19T03:18:21.847Z,12.90
2018-02-19T03:20:51.078Z,13.68
2018-02-19T03:23:20.303Z,12.70
2018-02-19T03:25:49.750Z,14.38
2018-02-19T03:28:19.965Z,12.00
2018-02-19T03:30:50.803Z,12.60
2018-02-19T03:33:20.029Z,13.27
2018-02-19T03:35:49.402Z,13.02
2018-02-19T03:38:18.636Z,12.85
2018-02-19T03:40:48.012Z,13.80
2018-02-19T03:43:17.240Z,13.27
2018-02-19T03:45:46.600Z,13.57
2018-02-19T03:48:15.834Z,13.82
2018-02-19T03:50:45.616Z,13.40
2018-02-19T03:53:14.844Z,15.15
2018-02-19T03:55:44.220Z,14.25
2018-02-19T03:58:13.444Z,14.50
2018-02-19T04:00:43.185Z,14.73
2018-02-19T04:03:12.532Z,14.05
2018-02-19T04:05:42.666Z,13.88
2018-02-19T04:08:12.765Z,14.80
2018-02-19T04:10:42.000Z,14.70
2018-02-19T04:13:11.380Z,14.70
2018-02-19T04:15:41.376Z,14.10
2018-02-19T04:18:10.693Z,14.93
2018-02-19T04:20:39.617Z,14.45
2018-02-19T04:23:09.061Z,15.63
2018-02-19T04:25:38.301Z,13.80
2018-02-19T04:28:08.373Z,14.63
2018-02-19T04:30:37.592Z,15.52
2018-02-19T04:33:07.025Z,14.60
2018-02-19T04:35:36.942Z,15.52
2018-02-19T04:38:07.036Z,15.43
2018-02-19T04:40:36.376Z,15.35
2018-02-19T04:43:08.505Z,15.00
2018-02-19T04:45:40.548Z,15.32
2018-02-19T04:48:10.063Z,14.98
2018-02-19T04:50:39.305Z,16.48
2018-02-19T04:53:09.400Z,16.27
2018-02-19T04:55:38.636Z,14.50
2018-02-19T04:58:08.004Z,16.12
2018-02-19T05:00:37.228Z,16.33
2018-02-19T05:03:07.222Z,14.68
2018-02-19T05:05:36.732Z,17.10
2018-02-19T05:08:05.978Z,16.62
2018-02-19T05:10:35.321Z,15.88
2018-02-19T05:13:04.555Z,15.90
2018-02-19T05:15:33.919Z,17.55
2018-02-19T05:18:03.161Z,16.52
2018-02-19T05:20:32.604Z,17.25
2018-02-19T05:23:01.940Z,16.12
2018-02-19T05:25:31.329Z,17.58
2018-02-19T05:28:00.720Z,17.15
2018-02-19T05:30:30.144Z,17.98
2018-02-19T05:32:59.373Z,16.00
2018-02-19T05:35:28.745Z,16.33
2018-02-19T05:37:58.001Z,18.10
2018-02-19T05:40:27.338Z,16.77
2018-02-19T05:42:58.060Z,17.17
2018-02-19T05:45:27.617Z,17.50
2018-02-19T05:47:56.818Z,16.45
2018-02-19T05:50:26.169Z,17.10
2018-02-19T05:52:55.391Z,17.00
2018-02-19T05:55:24.630Z,16.67
2018-02-19T05:57:54.093Z,17.55
2018-02-19T06:00:23.576Z,16.60
2018-02-19T06:02:53.100Z,18.50
2018-02-19T06:05:23.641Z,16.87
2018-02-19T06:07:53.131Z,18.20
2018-02-19T06:10:22.596Z,17.02
2018-02-19T06:12:51.939Z,17.73
2018-02-19T06:15:21.171Z,16.77
2018-02-19T06:17:50.487Z,17.00
2018-02-19T06:20:19.713Z,16.90
2018-02-19T06:22:49.077Z,16.02
2018-02-19T06:25:18.324Z,17.30
2018-02-19T06:27:47.703Z,16.70
2018-02-19T06:30:16.928Z,17.05
2018-02-19T06:32:46.350Z,16.37
2018-02-19T06:35:16.200Z,17.33
2018-02-19T06:37:45.564Z,18.20
2018-02-19T06:40:14.797Z,17.85
2018-02-19T06:42:44.020Z,17.08
2018-02-19T06:45:13.478Z,17.45
2018-02-19T06:47:42.709Z,17.65
2018-02-19T06:50:12.080Z,18.10
2018-02-19T06:52:41.509Z,17.23
2018-02-19T06:55:10.869Z,17.37
2018-02-19T06:57:40.484Z,18.60
2018-02-19T07:00:09.915Z,18.00
2018-02-19T07:02:39.112Z,18.27
2018-02-19T07:05:09.114Z,19.08
2018-02-19T07:07:39.694Z,20.40
2018-02-19T07:10:09.136Z,18.37
2018-02-19T07:12:38.636Z,18.75
2018-02-19T07:15:07.881Z,20.48
2018-02-19T07:17:37.256Z,18.10
2018-02-19T07:20:06.473Z,19.90
2018-02-19T07:22:35.841Z,18.37
2018-02-19T07:25:05.092Z,20.23
2018-02-19T07:27:34.374Z,20.08
2018-02-19T07:30:03.665Z,20.35
2018-02-19T07:32:32.955Z,19.08
2018-02-19T07:35:02.177Z,21.08
2018-02-19T07:37:31.495Z,19.50
2018-02-19T07:40:00.721Z,19.95
2018-02-19T07:42:30.052Z,21.08
2018-02-19T07:44:59.300Z,20.10
2018-02-19T07:47:28.689Z,21.85
2018-02-19T07:49:57.924Z,19.70
2018-02-19T07:52:27.112Z,21.10
2018-02-19T07:54:56.432Z,21.27
2018-02-19T07:57:25.667Z,19.73
2018-02-19T07:59:55.755Z,20.17
2018-02-19T08:02:24.998Z,19.45
2018-02-19T08:04:54.308Z,20.83
2018-02-19T08:07:23.568Z,21.60
2018-02-19T08:09:52.908Z,22.58
2018-02-19T08:12:22.145Z,27.13
2018-02-19T08:14:52.236Z,25.85
2018-02-19T08:17:21.477Z,36.50
2018-02-19T08:19:50.795Z,23.30
2018-02-19T08:22:20.027Z,32.72
2018-02-19T08:24:49.321Z,29.87
2018-02-19T08:27:18.588Z,32.50
2018-02-19T08:29:47.889Z,33.20
2018-02-19T08:32:17.149Z,28.05
2018-02-19T08:34:46.523Z,26.58
2018-02-19T08:37:15.765Z,27.35
2018-02-19T08:39:44.992Z,22.30
2018-02-19T08:42:14.305Z,27.65
2018-02-19T08:44:44.312Z,24.33
2018-02-19T08:47:13.653Z,26.20
2018-02-19T08:49:42.884Z,28.02
2018-02-19T08:52:12.198Z,24.92
2018-02-19T08:54:41.433Z,31.52
2018-02-19T08:57:11.524Z,24.00
2018-02-19T08:59:40.753Z,26.73
2018-02-19T09:02:10.067Z,27.15
2018-02-19T09:04:39.293Z,24.00
2018-02-19T09:07:08.615Z,26.35
2018-02-19T09:09:37.863Z,25.98
2018-02-19T09:12:07.948Z,35.47
2018-02-19T09:14:37.231Z,36.90
2018-02-19T09:17:06.282Z,33.67
2018-02-19T09:19:35.509Z,27.15
2018-02-19T09:22:04.757Z,28.48
2018-02-19T09:24:34.882Z,33.10
2018-02-19T09:27:04.097Z,32.65
2018-02-19T09:29:33.401Z,33.20
2018-02-19T09:32:02.633Z,27.73
2018-02-19T09:34:31.958Z,27.40
2018-02-19T09:37:01.241Z,28.65
2018-02-19T09:39:30.583Z,24.40
2018-02-19T09:41:59.818Z,29.50
2018-02-19T09:44:29.140Z,31.62
2018-02-19T09:46:58.438Z,24.02
2018-02-19T09:49:27.753Z,36.85
2018-02-19T09:51:56.984Z,29.83
2018-02-19T09:54:27.131Z,31.35
2018-02-19T09:56:56.388Z,32.60
2018-02-19T09:59:25.613Z,31.73
2018-02-19T10:01:54.929Z,28.45
2018-02-19T10:04:24.190Z,25.52
2018-02-19T10:06:53.510Z,33.60
2018-02-19T10:09:22.744Z,24.63
2018-02-19T10:11:52.065Z,23.92
2018-02-19T10:14:21.306Z,28.05
2018-02-19T10:16:51.384Z,24.40
2018-02-19T10:19:20.625Z,28.75
2018-02-19T10:21:49.945Z,31.45
2018-02-19T10:24:19.229Z,28.27
2018-02-19T10:26:48.517Z,28.80
2018-02-19T10:29:17.744Z,29.25
2018-02-19T10:31:47.097Z,31.20
2018-02-19T10:34:16.350Z,28.02
2018-02-19T10:36:46.320Z,29.95
2018-02-19T10:39:15.633Z,37.78
2018-02-19T10:41:44.861Z,33.33
2018-02-19T10:44:14.181Z,32.78
2018-02-19T10:46:43.446Z,32.90
2018-02-19T10:49:12.746Z,36.78
2018-02-19T10:51:42.765Z,29.08
2018-02-19T10:54:12.098Z,32.90
2018-02-19T10:56:41.328Z,27.77
2018-02-19T10:59:10.648Z,40.45
2018-02-19T11:01:40.264Z,29.20
2018-02-19T11:04:09.558Z,28.92
2018-02-19T11:06:38.800Z,27.10
2018-02-19T11:09:09.609Z,27.50
2018-02-19T11:11:39.703Z,27.85
2018-02-19T11:14:08.938Z,36.80
2018-02-19T11:16:38.253Z,31.08
2018-02-19T11:19:07.477Z,27.08
2018-02-19T11:21:36.831Z,28.45
2018-02-19T11:24:06.058Z,28.40
2018-02-19T11:26:35.376Z,34.30
2018-02-19T11:29:04.631Z,30.80
2018-02-19T11:31:34.708Z,28.55
2018-02-19T11:34:03.950Z,27.35
2018-02-19T11:36:33.316Z,28.75
2018-02-19T11:39:02.553Z,40.42
2018-02-19T11:41:31.882Z,27.37
2018-02-19T11:44:01.117Z,27.45
2018-02-19T11:46:30.351Z,26.95
2018-02-19T11:49:00.433Z,27.85
2018-02-19T11:51:29.665Z,29.02
2018-02-19T11:53:58.976Z,28.00
2018-02-19T11:56:28.217Z,27.35
2018-02-19T11:58:57.525Z,30.20
2018-02-19T12:01:26.754Z,28.48
2018-02-19T12:03:56.060Z,28.50
2018-02-19T12:06:25.284Z,28.12
2018-02-19T12:08:55.487Z,30.95
2018-02-19T12:11:25.480Z,27.80
2018-02-19T12:13:54.812Z,30.05
2018-02-19T12:16:24.075Z,34.58
2018-02-19T12:18:53.284Z,36.55
2018-02-19T12:21:22.601Z,35.85
2018-02-19T12:23:52.015Z,35.60
2018-02-19T12:26:21.283Z,31.52
2018-02-19T12:28:50.517Z,32.40
2018-02-19T12:31:20.605Z,30.85
2018-02-19T12:33:49.836Z,30.20
2018-02-19T12:36:19.169Z,28.87
2018-02-19T12:38:48.403Z,36.00
2018-02-19T12:41:17.716Z,33.15
2018-02-19T12:43:46.961Z,28.10
2018-02-19T12:46:16.292Z,29.27
2018-02-19T12:48:45.489Z,30.55
2018-02-19T12:51:14.861Z,31.40
2018-02-19T12:53:44.176Z,28.67
2018-02-19T12:56:13.421Z,31.73
2018-02-19T12:58:42.744Z,33.78
2018-02-19T13:01:12.739Z,36.20
2018-02-19T13:03:42.059Z,28.38
2018-02-19T13:06:12.050Z,29.33
2018-02-19T13:08:41.404Z,29.08
2018-02-19T13:11:10.641Z,34.85
2018-02-19T13:13:39.952Z,31.35
2018-02-19T13:16:09.184Z,32.70
2018-02-19T13:18:38.512Z,29.77
2018-02-19T13:21:07.772Z,34.05
2018-02-19T13:23:37.064Z,31.83
2018-02-19T13:26:06.285Z,34.13
2018-02-19T13:28:36.384Z,30.25
2018-02-19T13:31:05.621Z,35.63
2018-02-19T13:33:34.934Z,39.78
2018-02-19T13:36:04.156Z,29.75
2018-02-19T13:38:33.525Z,30.75
2018-02-19T13:41:02.806Z,28.65
2018-02-19T13:43:32.783Z,35.65
2018-02-19T13:46:02.097Z,27.48
2018-02-19T13:48:31.318Z,26.85
2018-02-19T13:51:00.631Z,28.17
2018-02-19T13:53:29.870Z,26.25
2018-02-19T13:55:59.178Z,26.67
2018-02-19T13:58:28.405Z,30.23
2018-02-19T14:00:57.728Z,27.65
2018-02-19T14:03:26.957Z,29.95
2018-02-19T14:05:56.830Z,32.40
2018-02-19T14:08:26.249Z,28.27
2018-02-19T14:10:55.559Z,26.23
2018-02-19T14:13:24.789Z,26.35
2018-02-19T14:15:54.217Z,27.15
2018-02-19T14:18:23.450Z,27.08
2018-02-19T14:20:52.689Z,26.65
2018-02-19T14:23:22.045Z,26.12
2018-02-19T14:25:51.268Z,26.20
2018-02-19T14:28:20.582Z,27.67
2018-02-19T14:30:49.985Z,26.70
2018-02-19T14:33:19.312Z,26.50
2018-02-19T14:35:48.559Z,24.12
2018-02-19T14:38:17.877Z,28.02
2018-02-19T14:40:47.145Z,24.52
2018-02-19T14:43:16.463Z,25.98
2018-02-19T14:45:45.956Z,24.50
2018-02-19T14:48:15.295Z,24.90
2018-02-19T14:50:44.532Z,25.95
2018-02-19T14:53:13.758Z,24.87
2018-02-19T14:55:43.886Z,23.95
2018-02-19T14:58:13.883Z,26.30
2018-02-19T15:00:43.191Z,23.10
2018-02-19T15:03:12.449Z,25.02
2018-02-19T15:05:41.796Z,25.85
2018-02-19T15:08:11.029Z,25.80
2018-02-19T15:10:40.374Z,25.85
2018-02-19T15:13:09.730Z,24.00
2018-02-19T15:15:39.293Z,23.33
2018-02-19T15:18:09.305Z,23.95
2018-02-19T15:20:38.717Z,24.98
2018-02-19T15:23:07.944Z,23.35
2018-02-19T15:25:37.269Z,24.27
2018-02-19T15:28:06.516Z,25.73
2018-02-19T15:30:35.784Z,24.92
2018-02-19T15:33:05.145Z,25.83
2018-02-19T15:35:34.372Z,23.67
2018-02-19T15:38:03.809Z,25.08
2018-02-19T15:40:33.030Z,26.05
2018-02-19T15:43:02.351Z,25.17
2018-02-19T15:45:31.574Z,24.95
2018-02-19T15:48:01.440Z,25.88
2018-02-19T15:50:30.657Z,27.25
2018-02-19T15:53:00.105Z,25.70
2018-02-19T15:55:29.342Z,25.27
2018-02-19T15:57:59.458Z,26.02
2018-02-19T16:00:29.462Z,23.65
2018-02-19T16:03:00.288Z,25.67
2018-02-19T16:05:29.532Z,28.38
2018-02-19T16:07:58.912Z,24.83
2018-02-19T16:10:28.977Z,26.02
2018-02-19T16:12:59.018Z,27.98
2018-02-19T16:15:28.244Z,26.30
2018-02-19T16:17:57.481Z,26.23
2018-02-19T16:20:26.825Z,26.90
2018-02-19T16:22:56.057Z,32.28
2018-02-19T16:25:25.448Z,25.20
2018-02-19T16:27:54.679Z,25.70
2018-02-19T16:30:24.001Z,27.95
2018-02-19T16:32:53.243Z,29.67
2018-02-19T16:35:24.102Z,26.73
2018-02-19T16:37:54.096Z,25.95
2018-02-19T16:40:23.407Z,30.23
2018-02-19T16:42:52.636Z,28.33
2018-02-19T16:45:21.973Z,24.55
2018-02-19T16:47:51.642Z,27.13
2018-02-19T16:50:21.534Z,27.05
2018-02-19T16:52:50.830Z,28.38
2018-02-19T16:55:20.825Z,31.80
2018-02-19T16:57:50.145Z,33.65
2018-02-19T17:00:20.877Z,34.25
2018-02-19T17:02:50.500Z,30.83
2018-02-19T17:05:19.724Z,30.67
2018-02-19T17:07:48.957Z,28.25
2018-02-19T17:10:18.268Z,28.40
2018-02-19T17:12:47.984Z,27.00
2018-02-19T17:15:17.393Z,28.17
2018-02-19T17:17:46.618Z,29.60
2018-02-19T17:20:16.693Z,32.55
2018-02-19T17:22:45.920Z,30.90
2018-02-19T17:25:15.362Z,30.37
2018-02-19T17:27:44.601Z,29.40
2018-02-19T17:30:13.993Z,29.85
2018-02-19T17:32:43.219Z,31.20
2018-02-19T17:35:13.471Z,25.98
2018-02-19T17:37:43.561Z,27.00
2018-02-19T17:40:12.780Z,26.75
2018-02-19T17:42:42.098Z,30.48
2018-02-19T17:45:11.338Z,26.62
2018-02-19T17:47:40.648Z,26.90
2018-02-19T17:50:09.886Z,28.10
2018-02-19T17:52:39.986Z,29.58
2018-02-19T17:55:09.217Z,28.92
2018-02-19T17:57:38.604Z,31.23
2018-02-19T18:00:08.600Z,30.23
2018-02-19T18:02:37.938Z,30.62
2018-02-19T18:05:07.158Z,29.98
2018-02-19T18:07:36.984Z,28.85
2018-02-19T18:10:06.278Z,29.08
2018-02-19T18:12:35.501Z,29.50
2018-02-19T18:15:05.239Z,27.42
2018-02-19T18:17:34.457Z,31.45
2018-02-19T18:20:04.355Z,29.27
2018-02-19T18:22:33.577Z,28.70
2018-02-19T18:25:02.944Z,29.00
2018-02-19T18:27:32.165Z,29.12
2018-02-19T18:30:01.395Z,29.15
2018-02-19T18:32:30.717Z,26.98
2018-02-19T18:34:59.957Z,29.37
2018-02-19T18:37:30.033Z,26.95
2018-02-19T18:39:59.311Z,27.67
2018-02-19T18:42:28.678Z,27.25
2018-02-19T18:44:58.680Z,27.58
2018-02-19T18:47:28.032Z,26.90
2018-02-19T18:49:57.266Z,28.52
2018-02-19T18:52:26.723Z,27.42
2018-02-19T18:54:57.419Z,25.27
2018-02-19T18:57:27.533Z,26.77
2018-02-19T18:59:56.907Z,26.92
2018-02-19T19:02:26.005Z,28.27
2018-02-19T19:04:55.433Z,26.87
2018-02-19T19:07:42.511Z,29.10
2018-02-19T19:10:29.381Z,30.12
2018-02-19T19:12:59.488Z,29.27
2018-02-19T19:15:28.777Z,29.15
2018-02-19T19:17:58.109Z,28.33
2018-02-19T19:20:29.642Z,28.77
2018-02-19T19:22:59.475Z,29.48
2018-02-19T19:25:28.880Z,27.58
2018-02-19T19:27:58.085Z,28.25
2018-02-19T19:30:28.405Z,27.10
2018-02-19T19:32:57.613Z,28.67
2018-02-19T19:35:26.958Z,27.05
2018-02-19T19:37:56.228Z,28.33
2018-02-19T19:40:25.585Z,28.83
2018-02-19T19:42:54.814Z,27.08
2018-02-19T19:45:24.180Z,27.17
2018-02-19T19:47:53.462Z,27.23
2018-02-19T19:50:22.795Z,26.27
2018-02-19T19:52:52.027Z,32.45
2018-02-19T19:55:21.326Z,28.52
2018-02-19T19:57:50.562Z,30.40
2018-02-19T20:00:19.867Z,32.05
2018-02-19T20:02:49.934Z,28.85
2018-02-19T20:05:20.062Z,29.50
2018-02-19T20:07:49.394Z,33.50
2018-02-19T20:10:18.736Z,30.33
2018-02-19T20:12:49.713Z,31.05
2018-02-19T20:15:19.711Z,27.23
2018-02-19T20:17:49.028Z,31.23
2018-02-19T20:20:18.278Z,30.62
2018-02-19T20:22:47.608Z,33.33
2018-02-19T20:25:16.828Z,35.28
2018-02-19T20:27:46.150Z,31.92
2018-02-19T20:30:15.380Z,33.55
2018-02-19T20:32:44.710Z,34.22
2018-02-19T20:35:14.749Z,30.62
2018-02-19T20:37:44.105Z,31.40
2018-02-19T20:40:13.411Z,33.38
2018-02-19T20:42:42.749Z,28.00
2018-02-19T20:45:12.077Z,31.70
2018-02-19T20:47:41.300Z,36.08
2018-02-19T20:50:10.606Z,31.40
2018-02-19T20:52:39.873Z,29.80
2018-02-19T20:55:09.268Z,30.02
2018-02-19T20:57:38.432Z,32.03
2018-02-19T21:00:07.738Z,33.42
2018-02-19T21:02:37.739Z,32.58
2018-02-19T21:05:07.114Z,32.08
2018-02-19T21:07:36.370Z,30.62
2018-02-19T21:10:06.478Z,39.28
2018-02-19T21:12:36.473Z,29.40
2018-02-19T21:15:05.712Z,34.70
2018-02-19T21:17:35.062Z,31.77
2018-02-19T21:20:04.307Z,38.83
2018-02-19T21:22:33.616Z,49.25
2018-02-19T21:25:02.896Z,34.70
2018-02-19T21:27:33.005Z,29.63
2018-02-19T21:30:02.235Z,34.22
2018-02-19T21:32:31.577Z,31.27
2018-02-19T21:35:00.777Z,41.33
2018-02-19T21:37:30.080Z,30.05
2018-02-19T21:39:59.317Z,27.92
2018-02-19T21:42:29.387Z,35.80
2018-02-19T21:44:58.617Z,31.25
2018-02-19T21:47:27.944Z,29.25
2018-02-19T21:49:57.190Z,40.55
2018-02-19T21:52:26.426Z,42.80
2018-02-19T21:54:55.790Z,36.72
2018-02-19T21:57:25.157Z,32.67
2018-02-19T21:59:54.579Z,32.20
2018-02-19T22:02:23.898Z,34.65
2018-02-19T22:04:53.205Z,31.90
2018-02-19T22:07:22.463Z,45.25
2018-02-19T22:09:51.794Z,34.25
2018-02-19T22:12:21.004Z,33.78
2018-02-19T22:14:50.329Z,35.30
2018-02-19T22:17:19.552Z,39.67
2018-02-19T22:19:48.889Z,48.22
2018-02-19T22:22:18.132Z,42.33
2018-02-19T22:24:47.485Z,37.63
2018-02-19T22:27:16.964Z,35.40
2018-02-19T22:29:46.284Z,40.92
2018-02-19T22:32:15.504Z,47.05
2018-02-19T22:34:44.734Z,45.25
2018-02-19T22:37:14.670Z,47.72
2018-02-19T22:39:44.804Z,41.05
2018-02-19T22:42:14.291Z,42.62
2018-02-19T22:44:44.296Z,42.53
2018-02-19T22:47:14.517Z,37.08
2018-02-19T22:49:43.845Z,31.70
2018-02-19T22:52:14.160Z,30.48
2018-02-19T22:54:44.972Z,39.28
2018-02-19T22:57:14.997Z,36.70
2018-02-19T22:59:44.499Z,34.65
2018-02-19T23:02:13.745Z,32.05
2018-02-19T23:04:43.104Z,31.65
2018-02-19T23:07:12.329Z,32.15
2018-02-19T23:09:41.700Z,38.22
2018-02-19T23:12:11.659Z,32.80
2018-02-19T23:14:40.978Z,37.80
2018-02-19T23:17:10.196Z,46.05
2018-02-19T23:19:39.503Z,35.10
2018-02-19T23:22:08.745Z,43.17
2018-02-19T23:24:38.116Z,46.63
2018-02-19T23:27:07.349Z,35.05
2018-02-19T23:29:37.948Z,33.83
2018-02-19T23:32:07.424Z,47.20
2018-02-19T23:34:36.653Z,35.97
2018-02-19T23:37:06.077Z,35.80
2018-02-19T23:39:36.076Z,33.97
2018-02-19T23:42:05.518Z,31.45
2018-02-19T23:44:34.704Z,31.30
2018-02-19T23:47:04.089Z,28.70
2018-02-19T23:49:34.033Z,36.92
2018-02-19T23:52:03.519Z,35.85
2018-02-19T23:54:35.459Z,34.45
2018-02-19T23:57:04.969Z,32.95
2018-02-19T23:59:34.200Z,37.58
